Time;durP1;ratioP1;P1;durP2;ratioP2;P2;SDS_P1;SDS_P2;PMS_P1;PMS_P2;Temp;Humidity;BMP_temperature;BMP_pressure;BME280_temperature;BME280_humidity;BME280_pressure;Samples;Min_cycle;Max_cycle;Signal;HPM_P1;HPM_P2
2022/11/25 00:01:31;;;;;;;7.78;2.45;;;7.00;99.90;;;;;;5070518;28;20074;-73
2022/11/25 00:03:58;;;;;;;0.00;0.00;;;7.10;99.90;;;;;;5087460;28;20405;-74
2022/11/25 00:06:25;;;;;;;0.00;0.00;;;7.10;99.00;;;;;;5075964;28;20097;-73
2022/11/25 00:08:58;;;;;;;0.03;0.03;;;7.10;98.50;;;;;;5071927;28;20040;-74
2022/11/25 00:11:24;;;;;;;0.00;0.00;;;7.10;99.90;;;;;;5071918;28;20052;-72
2022/11/25 00:13:50;;;;;;;0.22;0.15;;;7.10;99.90;;;;;;5087635;28;20156;-73
2022/11/25 00:16:19;;;;;;;8.95;2.08;;;7.40;98.20;;;;;;5078951;28;20051;-74
2022/11/25 00:18:47;;;;;;;0.20;0.08;;;7.10;99.90;;;;;;5074569;28;20055;-75
2022/11/25 00:21:15;;;;;;;1.58;1.48;;;7.00;99.90;;;;;;5073644;28;20072;-72
2022/11/25 00:23:41;;;;;;;0.20;0.20;;;7.10;99.90;;;;;;5073980;28;20136;-73
2022/11/25 00:26:07;;;;;;;0.35;0.35;;;7.10;99.90;;;;;;5082493;28;20056;-74
2022/11/25 00:28:33;;;;;;;0.28;0.25;;;7.00;99.90;;;;;;5089454;28;20085;-72
2022/11/25 00:31:10;;;;;;;0.50;0.50;;;7.10;99.90;;;;;;5072958;28;20037;-74
2022/11/25 00:33:37;;;;;;;0.00;0.00;;;7.10;99.90;;;;;;5072317;28;20052;-75
2022/11/25 00:36:04;;;;;;;0.00;0.00;;;7.00;99.90;;;;;;5073416;28;20491;-73
2022/11/25 00:38:30;;;;;;;0.52;0.30;;;7.00;99.90;;;;;;5073545;28;20048;-73
2022/11/25 00:46:25;;;;;;;0.68;0.40;;;7.10;99.90;;;;;;5085120;28;20051;-74
2022/11/25 00:48:50;;;;;;;0.93;0.90;;;7.00;99.90;;;;;;5094764;28;20044;-74
2022/11/25 00:51:17;;;;;;;0.43;0.38;;;7.00;99.90;;;;;;5094907;28;20443;-74
2022/11/25 00:53:42;;;;;;;0.45;0.45;;;7.10;99.90;;;;;;5086095;28;20040;-74
2022/11/25 00:56:14;;;;;;;0.55;0.38;;;7.10;99.90;;;;;;5083587;28;20096;-72
2022/11/25 00:58:43;;;;;;;0.00;0.00;;;7.20;92.10;;;;;;5093556;28;20059;-74
2022/11/25 01:01:10;;;;;;;0.00;0.00;;;7.20;76.50;;;;;;5095054;28;20076;-73
2022/11/25 01:03:36;;;;;;;3.83;1.35;;;7.10;93.20;;;;;;5092833;28;20048;-73
2022/11/25 01:06:04;;;;;;;0.55;0.55;;;7.20;99.90;;;;;;5086872;28;20076;-74
2022/11/25 01:08:30;;;;;;;1.10;0.55;;;7.10;99.90;;;;;;5074334;28;20036;-73
2022/11/25 01:11:00;;;;;;;2.20;1.25;;;7.20;99.90;;;;;;5055868;28;20054;-72
2022/11/25 01:13:26;;;;;;;4.95;1.55;;;7.30;80.00;;;;;;5072923;28;20110;-73
2022/11/25 01:15:52;;;;;;;7.03;0.57;;;7.30;97.00;;;;;;5076952;28;20036;-75
2022/11/25 01:18:18;;;;;;;0.00;0.00;;;7.20;92.50;;;;;;5087156;28;20043;-73
2022/11/25 01:20:43;;;;;;;0.82;0.77;;;7.10;99.90;;;;;;5088454;28;20098;-74
2022/11/25 01:23:09;;;;;;;3.17;0.38;;;7.10;99.90;;;;;;5089474;28;20044;-73
2022/11/25 01:25:39;;;;;;;0.00;0.00;;;7.20;99.90;;;;;;5070076;28;20115;-74
2022/11/25 01:28:05;;;;;;;2.38;1.08;;;7.20;99.90;;;;;;5069790;28;20127;-72
2022/11/25 01:30:30;;;;;;;22.38;0.52;;;7.10;99.90;;;;;;5070927;28;20098;-74
2022/11/25 01:32:56;;;;;;;0.00;0.00;;;7.20;99.90;;;;;;5091534;28;20394;-74
2022/11/25 01:35:22;;;;;;;0.65;0.65;;;7.20;99.90;;;;;;5072746;28;20419;-74
2022/11/25 01:37:47;;;;;;;0.38;0.38;;;7.10;99.90;;;;;;5070098;28;20490;-72
2022/11/25 01:40:14;;;;;;;0.52;0.13;;;7.10;99.90;;;;;;5069165;28;20075;-74
2022/11/25 01:42:45;;;;;;;6.32;1.02;;;7.00;99.90;;;;;;5088972;28;20043;-72
2022/11/25 01:45:20;;;;;;;0.52;0.52;;;7.10;99.90;;;;;;5089208;28;20048;-74
2022/11/25 01:47:46;;;;;;;0.10;0.10;;;7.20;99.90;;;;;;5089245;28;20048;-73
2022/11/25 01:50:16;;;;;;;0.63;0.63;;;7.20;99.90;;;;;;5090529;28;20040;-75
2022/11/25 01:52:47;;;;;;;0.20;0.20;;;7.10;99.90;;;;;;5089290;28;20388;-73
2022/11/25 01:55:18;;;;;;;0.05;0.05;;;7.10;99.90;;;;;;5058060;28;20487;-73
2022/11/25 01:57:56;;;;;;;0.00;0.00;;;7.20;99.90;;;;;;5073596;28;20510;-73
2022/11/25 02:00:22;;;;;;;0.38;0.38;;;7.40;99.90;;;;;;5073731;28;20406;-73
2022/11/25 02:02:50;;;;;;;0.00;0.00;;;7.20;99.90;;;;;;5086692;28;20040;-74
2022/11/25 02:05:20;;;;;;;3.63;1.65;;;7.20;99.90;;;;;;5059250;28;20403;-75
2022/11/25 02:07:48;;;;;;;0.17;0.17;;;7.30;99.90;;;;;;5072014;28;20037;-74
2022/11/25 02:10:18;;;;;;;1.10;1.00;;;7.30;99.90;;;;;;5071902;28;20076;-73
2022/11/25 02:12:46;;;;;;;2.50;2.30;;;7.40;99.90;;;;;;5072591;28;20112;-74
2022/11/25 02:15:13;;;;;;;0.13;0.13;;;7.40;99.90;;;;;;5061821;28;20052;-75
2022/11/25 02:17:41;;;;;;;0.00;0.00;;;7.40;99.90;;;;;;5068060;28;20510;-73
2022/11/25 02:20:14;;;;;;;0.30;0.15;;;7.40;99.90;;;;;;5067762;28;20071;-75
2022/11/25 02:22:58;;;;;;;0.20;0.20;;;7.40;99.90;;;;;;5070112;28;20044;-75
2022/11/25 02:25:26;;;;;;;3.60;0.63;;;7.40;99.90;;;;;;5067603;28;20056;-73
2022/11/25 02:27:59;;;;;;;16.55;1.40;;;7.40;99.90;;;;;;5049115;28;20477;-75
2022/11/25 02:30:24;;;;;;;0.98;0.80;;;7.40;99.90;;;;;;5065705;28;20063;-74
2022/11/25 02:32:50;;;;;;;0.10;0.10;;;7.40;99.90;;;;;;5078565;28;20044;-73
2022/11/25 02:35:31;;;;;;;15.30;0.45;;;7.30;99.90;;;;;;5085930;28;20039;-73
2022/11/25 02:38:22;;;;;;;0.70;0.50;;;7.40;99.90;;;;;;5085545;28;20048;-75
2022/11/25 02:40:53;;;;;;;1.60;0.95;;;7.30;99.90;;;;;;5076014;28;20585;-74
2022/11/25 02:43:20;;;;;;;2.00;1.17;;;7.40;99.90;;;;;;5085078;28;20087;-75
2022/11/25 02:45:49;;;;;;;0.40;0.40;;;7.40;99.90;;;;;;5085480;28;20460;-73
2022/11/25 02:48:15;;;;;;;0.00;0.00;;;7.40;99.90;;;;;;5084507;28;20405;-73
2022/11/25 02:50:41;;;;;;;3.90;1.40;;;7.50;99.90;;;;;;5066819;28;20131;-74
2022/11/25 02:53:07;;;;;;;0.10;0.10;;;7.40;99.90;;;;;;5082954;28;20090;-73
2022/11/25 02:55:33;;;;;;;2.10;1.40;;;7.80;99.90;;;;;;5085880;28;20094;-72
2022/11/25 02:57:59;;;;;;;0.03;0.03;;;7.40;99.90;;;;;;5085151;28;20459;-74
2022/11/25 03:00:25;;;;;;;0.00;0.00;;;7.40;99.90;;;;;;5085779;28;20082;-73
2022/11/25 03:02:53;;;;;;;2.28;0.95;;;7.50;99.90;;;;;;5084913;28;20058;-72
2022/11/25 03:05:20;;;;;;;0.52;0.52;;;7.50;99.90;;;;;;5090209;28;20054;-73
2022/11/25 03:07:45;;;;;;;2.15;0.95;;;7.50;99.90;;;;;;5089516;28;20436;-74
2022/11/25 03:10:11;;;;;;;0.30;0.30;;;7.50;99.90;;;;;;5089288;28;20123;-73
2022/11/25 03:12:37;;;;;;;0.45;0.20;;;7.50;99.90;;;;;;5085004;28;20044;-74
2022/11/25 03:15:03;;;;;;;0.15;0.10;;;7.60;99.90;;;;;;5067788;28;20156;-74
2022/11/25 03:17:29;;;;;;;1.45;1.20;;;7.60;99.90;;;;;;5070462;28;20055;-74
2022/11/25 03:19:54;;;;;;;0.15;0.15;;;7.60;99.90;;;;;;5069557;28;20040;-73
2022/11/25 03:22:20;;;;;;;0.10;0.10;;;7.70;99.90;;;;;;5075771;28;20126;-74
2022/11/25 03:24:46;;;;;;;0.43;0.43;;;7.70;99.90;;;;;;5088500;28;20048;-74
2022/11/25 03:27:11;;;;;;;4.20;0.70;;;7.70;99.90;;;;;;5089844;28;20048;-75
2022/11/25 03:29:37;;;;;;;0.20;0.20;;;7.70;99.90;;;;;;5069554;28;20043;-73
2022/11/25 03:32:03;;;;;;;1.80;0.65;;;7.70;99.90;;;;;;5072905;28;20071;-74
2022/11/25 03:34:28;;;;;;;0.20;0.20;;;7.70;99.90;;;;;;5079325;28;20040;-73
2022/11/25 03:36:54;;;;;;;0.30;0.30;;;7.70;99.90;;;;;;5066866;28;20041;-73
2022/11/25 03:39:20;;;;;;;0.00;0.00;;;7.70;99.90;;;;;;5084250;28;20755;-75
2022/11/25 03:41:45;;;;;;;0.28;0.28;;;7.70;99.90;;;;;;5082968;28;20044;-73
2022/11/25 03:44:11;;;;;;;0.52;0.30;;;7.70;99.90;;;;;;5077479;28;20063;-75
2022/11/25 03:46:37;;;;;;;0.28;0.28;;;7.70;99.90;;;;;;5089188;28;20071;-73
2022/11/25 03:49:03;;;;;;;2.83;1.35;;;7.80;99.90;;;;;;5075014;28;20040;-72
2022/11/25 03:51:28;;;;;;;0.32;0.25;;;7.80;99.90;;;;;;5068244;28;20045;-72
2022/11/25 03:53:54;;;;;;;3.00;0.88;;;7.70;99.90;;;;;;5088510;28;20126;-73
2022/11/25 03:56:20;;;;;;;1.40;1.30;;;7.70;99.90;;;;;;5089036;28;20056;-72
2022/11/25 03:58:45;;;;;;;0.38;0.38;;;7.70;99.90;;;;;;5079199;28;20468;-73
2022/11/25 04:01:11;;;;;;;0.52;0.50;;;7.70;99.90;;;;;;5079880;28;20710;-72
2022/11/25 04:03:37;;;;;;;0.00;0.00;;;7.70;99.90;;;;;;5069986;28;20052;-74
2022/11/25 04:06:02;;;;;;;2.63;0.90;;;7.80;99.90;;;;;;5068791;28;20068;-73
2022/11/25 04:08:28;;;;;;;1.60;0.75;;;7.80;99.90;;;;;;5068410;28;20032;-72
2022/11/25 04:10:54;;;;;;;0.43;0.43;;;7.80;99.90;;;;;;5068934;28;20119;-72
2022/11/25 04:13:20;;;;;;;0.00;0.00;;;7.80;99.90;;;;;;5084290;28;20457;-73
2022/11/25 04:15:47;;;;;;;5.45;0.75;;;7.70;99.90;;;;;;5088115;28;20040;-73
2022/11/25 04:18:14;;;;;;;0.73;0.63;;;7.70;99.90;;;;;;5086383;28;20092;-74
2022/11/25 04:20:39;;;;;;;0.25;0.25;;;7.70;99.90;;;;;;5069946;28;20384;-73
2022/11/25 04:23:06;;;;;;;0.68;0.52;;;7.70;99.90;;;;;;5081516;28;20134;-73
2022/11/25 04:25:32;;;;;;;4.18;0.73;;;7.70;99.90;;;;;;5087352;28;20097;-74
2022/11/25 04:27:58;;;;;;;0.88;0.88;;;7.70;99.90;;;;;;5088223;28;20040;-75
2022/11/25 04:30:24;;;;;;;0.43;0.32;;;7.80;99.90;;;;;;5068219;28;20090;-74
2022/11/25 04:32:50;;;;;;;0.38;0.38;;;7.80;99.90;;;;;;5078221;28;20080;-73
2022/11/25 04:35:16;;;;;;;0.10;0.10;;;7.80;99.90;;;;;;5088520;28;20124;-72
2022/11/25 04:37:41;;;;;;;4.25;1.40;;;7.80;99.90;;;;;;5088683;28;20143;-73
2022/11/25 04:40:08;;;;;;;0.13;0.13;;;7.90;99.90;;;;;;5070542;28;20055;-74
2022/11/25 04:42:35;;;;;;;0.10;0.10;;;7.80;99.90;;;;;;5068649;28;20044;-73
2022/11/25 04:45:05;;;;;;;0.00;0.00;;;7.80;99.90;;;;;;5066383;28;20048;-74
2022/11/25 04:47:31;;;;;;;0.60;0.60;;;7.80;99.90;;;;;;5049066;28;20063;-73
2022/11/25 04:49:57;;;;;;;0.22;0.22;;;7.80;99.90;;;;;;5081807;28;20047;-75
2022/11/25 04:52:22;;;;;;;0.25;0.20;;;7.80;99.90;;;;;;5073969;28;20463;-74
2022/11/25 04:54:48;;;;;;;0.00;0.00;;;7.80;99.90;;;;;;5068461;28;20040;-75
2022/11/25 04:57:15;;;;;;;0.50;0.40;;;7.90;99.90;;;;;;5067811;28;20056;-73
2022/11/25 04:59:42;;;;;;;1.17;0.80;;;7.90;99.90;;;;;;5079781;28;20064;-75
2022/11/25 05:02:18;;;;;;;1.83;1.73;;;7.90;99.90;;;;;;5089644;28;20108;-74
2022/11/25 05:04:45;;;;;;;0.43;0.43;;;8.00;99.90;;;;;;5069320;28;20046;-72
2022/11/25 05:07:12;;;;;;;0.03;0.03;;;7.90;99.90;;;;;;5066238;28;20080;-74
2022/11/25 05:09:38;;;;;;;0.47;0.47;;;7.90;99.90;;;;;;5079137;28;20040;-73
2022/11/25 05:12:05;;;;;;;0.10;0.10;;;7.90;99.90;;;;;;5088977;28;20474;-73
2022/11/25 05:14:31;;;;;;;0.63;0.63;;;7.90;99.90;;;;;;5068730;28;20059;-72
2022/11/25 05:16:56;;;;;;;0.55;0.52;;;7.90;99.90;;;;;;5070071;28;20041;-74
2022/11/25 05:19:22;;;;;;;2.10;1.75;;;7.80;99.90;;;;;;5075662;28;20083;-73
2022/11/25 05:21:48;;;;;;;0.88;0.88;;;7.90;99.90;;;;;;5088510;28;20055;-73
2022/11/25 05:24:17;;;;;;;0.98;0.90;;;7.70;99.90;;;;;;5072954;28;20078;-74
2022/11/25 05:26:42;;;;;;;0.10;0.10;;;7.80;99.90;;;;;;5069354;28;20040;-74
2022/11/25 05:29:09;;;;;;;1.50;0.98;;;7.70;99.90;;;;;;5074849;28;20409;-74
2022/11/25 05:31:34;;;;;;;0.70;0.65;;;7.80;99.90;;;;;;5089632;28;20048;-74
2022/11/25 05:34:01;;;;;;;1.45;0.80;;;7.70;99.90;;;;;;5056603;28;20466;-73
2022/11/25 05:36:28;;;;;;;1.63;1.08;;;7.70;99.90;;;;;;5071214;28;20040;-73
2022/11/25 05:38:56;;;;;;;1.98;0.70;;;7.80;99.90;;;;;;5068070;28;20494;-75
2022/11/25 05:41:21;;;;;;;0.38;0.38;;;7.70;99.90;;;;;;5069574;28;20044;-74
2022/11/25 05:43:47;;;;;;;0.38;0.38;;;7.80;99.90;;;;;;5079301;28;20073;-75
2022/11/25 05:46:13;;;;;;;1.38;0.80;;;7.80;99.90;;;;;;5076011;28;20155;-74
2022/11/25 05:48:39;;;;;;;1.00;0.95;;;7.80;99.90;;;;;;5072146;28;20043;-73
2022/11/25 05:51:05;;;;;;;0.43;0.28;;;7.80;99.90;;;;;;5049852;28;20041;-73
2022/11/25 05:53:31;;;;;;;0.85;0.85;;;7.80;99.90;;;;;;5070894;28;20495;-73
2022/11/25 05:56:02;;;;;;;0.00;0.00;;;7.80;99.90;;;;;;5091640;28;20051;-75
2022/11/25 05:58:30;;;;;;;0.20;0.20;;;7.80;99.90;;;;;;5091468;28;20135;-75
2022/11/25 06:00:57;;;;;;;4.82;2.45;;;7.90;99.90;;;;;;5073992;28;20053;-73
2022/11/25 06:03:27;;;;;;;0.73;0.73;;;7.80;99.90;;;;;;5079559;28;20051;-73
2022/11/25 06:05:55;;;;;;;0.13;0.13;;;7.80;99.90;;;;;;5082564;28;20028;-74
2022/11/25 06:08:20;;;;;;;5.88;1.08;;;7.80;99.90;;;;;;5071901;28;20045;-75
2022/11/25 06:10:46;;;;;;;0.00;0.00;;;7.90;99.90;;;;;;5072370;28;20044;-73
2022/11/25 06:13:12;;;;;;;1.27;1.20;;;7.80;99.90;;;;;;5076772;28;20040;-74
2022/11/25 06:15:42;;;;;;;0.65;0.35;;;7.80;99.90;;;;;;5090396;28;20084;-74
2022/11/25 06:18:09;;;;;;;0.03;0.03;;;7.80;99.90;;;;;;5088932;28;20101;-72
2022/11/25 06:20:35;;;;;;;0.68;0.68;;;7.80;99.90;;;;;;5079018;28;20040;-73
2022/11/25 06:23:01;;;;;;;0.70;0.70;;;8.90;99.90;;;;;;5076487;28;20110;-75
2022/11/25 06:25:26;;;;;;;1.50;1.20;;;7.80;99.90;;;;;;5088087;28;20046;-74
2022/11/25 06:27:52;;;;;;;0.70;0.50;;;7.80;99.90;;;;;;5088644;28;20048;-73
2022/11/25 06:30:18;;;;;;;0.00;0.00;;;7.80;99.90;;;;;;5082349;28;20084;-74
2022/11/25 06:32:44;;;;;;;0.10;0.10;;;7.90;99.90;;;;;;5078596;28;20048;-75
2022/11/25 06:35:09;;;;;;;0.98;0.82;;;7.90;99.90;;;;;;5089861;28;20051;-74
2022/11/25 06:37:35;;;;;;;10.70;0.57;;;7.90;99.90;;;;;;5088917;28;20048;-74
2022/11/25 06:40:01;;;;;;;0.57;0.52;;;7.90;99.90;;;;;;5094080;28;20044;-75
2022/11/25 06:42:27;;;;;;;0.20;0.20;;;7.90;99.90;;;;;;5094577;28;20047;-72
2022/11/25 06:44:53;;;;;;;1.60;0.88;;;7.90;99.90;;;;;;5093970;28;20040;-73
2022/11/25 06:47:19;;;;;;;0.60;0.60;;;7.90;99.90;;;;;;5094071;28;20375;-75
2022/11/25 06:49:44;;;;;;;0.52;0.30;;;7.90;99.90;;;;;;5094037;28;20375;-75
2022/11/25 06:52:10;;;;;;;0.52;0.50;;;7.90;99.90;;;;;;5094705;28;20382;-74
2022/11/25 06:54:39;;;;;;;1.55;1.13;;;7.90;99.90;;;;;;5095882;28;20040;-74
2022/11/25 06:57:09;;;;;;;0.70;0.65;;;7.90;99.90;;;;;;5093737;28;20064;-75
2022/11/25 06:59:35;;;;;;;1.45;0.75;;;8.30;99.90;;;;;;5077070;28;20062;-74
2022/11/25 07:02:01;;;;;;;0.50;0.50;;;8.00;99.90;;;;;;5094868;28;20455;-75
2022/11/25 07:04:27;;;;;;;3.70;2.10;;;7.90;99.90;;;;;;5095136;28;20048;-76
2022/11/25 07:06:52;;;;;;;0.20;0.20;;;7.90;99.90;;;;;;5095128;28;20104;-74
2022/11/25 07:09:18;;;;;;;1.08;0.50;;;7.90;99.90;;;;;;5094489;28;20043;-74
2022/11/25 07:11:44;;;;;;;1.65;1.55;;;7.80;99.90;;;;;;5094884;28;20075;-74
2022/11/25 07:14:13;;;;;;;0.00;0.00;;;7.80;99.90;;;;;;5095301;28;20547;-75
2022/11/25 07:16:40;;;;;;;0.60;0.60;;;7.80;99.90;;;;;;5095784;28;20043;-73
2022/11/25 07:19:06;;;;;;;0.00;0.00;;;8.60;99.90;;;;;;5095297;28;20052;-73
2022/11/25 07:21:33;;;;;;;0.00;0.00;;;7.60;99.90;;;;;;5094437;28;20051;-73
2022/11/25 07:24:00;;;;;;;0.20;0.20;;;7.60;99.90;;;;;;5093775;28;20067;-73
2022/11/25 07:26:29;;;;;;;0.00;0.00;;;7.60;99.90;;;;;;5096297;28;20048;-75
2022/11/25 07:28:58;;;;;;;0.65;0.40;;;7.60;99.90;;;;;;5093368;28;20086;-74
2022/11/25 07:31:27;;;;;;;0.00;0.00;;;7.60;99.90;;;;;;5072779;28;20103;-73
2022/11/25 07:33:58;;;;;;;0.08;0.08;;;7.60;99.90;;;;;;5074526;28;20044;-75
2022/11/25 07:36:24;;;;;;;0.00;0.00;;;7.60;99.90;;;;;;5069941;28;20577;-73
2022/11/25 07:38:49;;;;;;;0.38;0.17;;;7.60;99.90;;;;;;5073976;28;20083;-73
2022/11/25 07:41:18;;;;;;;1.23;0.82;;;7.60;99.90;;;;;;5073199;28;20036;-73
2022/11/25 07:43:49;;;;;;;4.97;0.80;;;7.60;99.90;;;;;;5075658;28;20487;-73
2022/11/25 07:46:39;;;;;;;0.00;0.00;;;7.60;99.90;;;;;;5075740;28;20036;-73
2022/11/25 07:49:08;;;;;;;0.25;0.25;;;7.60;99.90;;;;;;5054771;28;20064;-74
2022/11/25 07:51:36;;;;;;;0.88;0.77;;;7.70;99.90;;;;;;5074899;28;20098;-73
2022/11/25 07:54:05;;;;;;;0.00;0.00;;;7.70;99.90;;;;;;5074183;28;20044;-73
2022/11/25 07:56:33;;;;;;;0.10;0.10;;;7.60;99.90;;;;;;5072988;28;20100;-73
2022/11/25 07:58:58;;;;;;;0.25;0.20;;;7.60;99.90;;;;;;5072790;28;20060;-73
2022/11/25 08:01:30;;;;;;;5.65;0.25;;;7.60;99.90;;;;;;5073656;28;20063;-73
2022/11/25 08:03:57;;;;;;;0.10;0.10;;;7.60;99.90;;;;;;5074067;28;20052;-73
2022/11/25 08:06:25;;;;;;;0.25;0.25;;;7.60;99.90;;;;;;5073651;28;20059;-73
2022/11/25 08:08:54;;;;;;;0.00;0.00;;;7.60;99.90;;;;;;5073174;28;20047;-73
2022/11/25 08:11:23;;;;;;;1.48;0.65;;;7.60;99.90;;;;;;5070380;28;20040;-72
2022/11/25 08:13:48;;;;;;;1.13;0.95;;;7.60;99.90;;;;;;5073622;28;20524;-74
2022/11/25 08:16:16;;;;;;;2.25;1.30;;;7.50;99.90;;;;;;5073925;28;20116;-73
2022/11/25 08:18:43;;;;;;;0.25;0.25;;;7.50;99.90;;;;;;5073079;28;20052;-74
2022/11/25 08:21:10;;;;;;;0.00;0.00;;;7.50;99.90;;;;;;5073904;28;20045;-73
2022/11/25 08:23:38;;;;;;;0.15;0.13;;;7.50;99.90;;;;;;5073527;28;20044;-74
2022/11/25 08:26:05;;;;;;;0.13;0.13;;;7.50;99.90;;;;;;5073586;28;20054;-74
2022/11/25 08:28:31;;;;;;;0.00;0.00;;;7.50;99.90;;;;;;5074223;28;20040;-72
2022/11/25 08:31:04;;;;;;;0.50;0.50;;;7.40;99.90;;;;;;5074285;28;20090;-75
2022/11/25 08:33:29;;;;;;;0.00;0.00;;;7.40;99.90;;;;;;5073347;28;20055;-72
2022/11/25 08:35:55;;;;;;;10.70;0.70;;;7.50;99.90;;;;;;5074235;28;20029;-74
2022/11/25 08:38:21;;;;;;;0.32;0.30;;;7.50;99.90;;;;;;5074682;28;20048;-73
2022/11/25 08:40:46;;;;;;;0.38;0.38;;;7.50;99.90;;;;;;5071999;28;20057;-73
2022/11/25 08:43:12;;;;;;;0.00;0.00;;;7.50;99.90;;;;;;5072074;28;20081;-74
2022/11/25 08:45:39;;;;;;;1.90;0.73;;;7.50;99.90;;;;;;5073630;28;20043;-75
2022/11/25 08:48:05;;;;;;;0.75;0.73;;;7.60;99.90;;;;;;5072146;28;20072;-74
2022/11/25 08:50:31;;;;;;;0.73;0.73;;;7.60;99.90;;;;;;5070332;28;20520;-75
2022/11/25 08:52:58;;;;;;;5.43;2.78;;;7.60;99.90;;;;;;5071181;28;20545;-75
2022/11/25 08:55:26;;;;;;;5.32;1.67;;;7.70;99.90;;;;;;5070900;28;20048;-74
2022/11/25 08:57:52;;;;;;;1.55;1.45;;;7.80;99.90;;;;;;5071508;28;20074;-74
2022/11/25 09:00:19;;;;;;;0.20;0.20;;;7.90;99.90;;;;;;5071463;28;20060;-74
2022/11/25 09:02:44;;;;;;;0.30;0.30;;;7.90;99.90;;;;;;5070882;28;20044;-73
2022/11/25 09:05:13;;;;;;;1.27;0.95;;;8.00;99.90;;;;;;5072586;28;20049;-74
2022/11/25 09:07:38;;;;;;;0.35;0.20;;;8.00;99.90;;;;;;5071927;28;20048;-75
2022/11/25 09:12:32;;;;;;;0.20;0.20;;;8.20;99.90;;;;;;5065239;28;20047;-74
2022/11/25 09:14:58;;;;;;;0.35;0.32;;;8.10;99.90;;;;;;5070341;28;20044;-74
2022/11/25 09:17:24;;;;;;;0.17;0.17;;;8.10;99.90;;;;;;5070403;28;20551;-74
2022/11/25 09:19:50;;;;;;;7.28;0.75;;;8.10;99.90;;;;;;5072649;28;20098;-74
2022/11/25 09:22:16;;;;;;;0.10;0.10;;;8.10;99.90;;;;;;5069933;28;20695;-73
2022/11/25 09:24:44;;;;;;;0.05;0.05;;;8.20;99.90;;;;;;5071252;28;20040;-74
2022/11/25 09:27:09;;;;;;;1.27;0.85;;;8.10;99.90;;;;;;5053236;28;20083;-73
2022/11/25 09:29:35;;;;;;;0.10;0.10;;;8.10;99.90;;;;;;5070134;28;20044;-75
2022/11/25 09:32:01;;;;;;;0.55;0.30;;;8.20;99.90;;;;;;5073307;28;20127;-73
2022/11/25 09:34:27;;;;;;;0.25;0.25;;;8.20;99.90;;;;;;5072624;28;20050;-74
2022/11/25 09:36:52;;;;;;;0.77;0.47;;;8.20;99.90;;;;;;5072971;28;20106;-74
2022/11/25 09:39:18;;;;;;;4.28;1.75;;;8.30;99.90;;;;;;5071749;28;20052;-73
2022/11/25 09:48:43;;;;;;;0.10;0.10;;;8.30;99.90;;;;;;5058515;28;20075;-74
2022/11/25 09:51:17;;;;;;;0.63;0.50;;;8.30;99.90;;;;;;5072568;28;20056;-74
2022/11/25 09:53:51;;;;;;;2.83;0.77;;;8.40;99.90;;;;;;5073756;28;20052;-72
2022/11/25 09:56:33;;;;;;;0.13;0.10;;;8.40;99.90;;;;;;5072816;28;20127;-74
2022/11/25 09:59:13;;;;;;;0.03;0.03;;;8.40;99.90;;;;;;5073530;28;20080;-74
2022/11/25 10:01:51;;;;;;;0.00;0.00;;;8.50;99.90;;;;;;5073778;28;20045;-73
2022/11/25 10:04:33;;;;;;;0.28;0.28;;;8.50;99.90;;;;;;5073629;28;20067;-74
2022/11/25 10:07:01;;;;;;;0.85;0.85;;;8.50;99.90;;;;;;5054717;28;20052;-74
2022/11/25 10:09:31;;;;;;;0.80;0.25;;;8.50;99.90;;;;;;5074347;28;20047;-74
2022/11/25 10:12:10;;;;;;;0.00;0.00;;;8.60;99.90;;;;;;5074759;28;20067;-73
2022/11/25 10:14:41;;;;;;;0.03;0.03;;;8.60;99.90;;;;;;5082763;28;20067;-74
2022/11/25 10:17:38;;;;;;;0.45;0.30;;;8.60;99.90;;;;;;5081145;28;20055;-73
2022/11/25 10:20:16;;;;;;;0.15;0.15;;;8.60;99.90;;;;;;5081100;28;20079;-73
2022/11/25 10:22:45;;;;;;;0.10;0.10;;;8.70;99.90;;;;;;5080578;28;20041;-74
2022/11/25 10:25:21;;;;;;;0.60;0.60;;;8.70;99.90;;;;;;5081914;28;20459;-74
2022/11/25 10:28:15;;;;;;;0.28;0.20;;;8.70;99.90;;;;;;5080164;28;20066;-73
2022/11/25 10:31:00;;;;;;;1.17;0.80;;;8.80;99.90;;;;;;5079899;28;20045;-73
2022/11/25 10:33:39;;;;;;;0.35;0.30;;;8.90;99.90;;;;;;5078654;28;20418;-74
2022/11/25 10:36:14;;;;;;;0.00;0.00;;;8.90;99.90;;;;;;5079528;28;20048;-73
2022/11/25 10:38:45;;;;;;;0.35;0.30;;;9.00;99.90;;;;;;5079941;28;20048;-72
2022/11/25 10:41:17;;;;;;;1.85;1.10;;;9.00;99.90;;;;;;5079476;28;20044;-75
2022/11/25 10:43:44;;;;;;;9.90;1.70;;;9.10;99.90;;;;;;5079214;28;20105;-75
2022/11/25 10:46:19;;;;;;;0.65;0.20;;;9.20;99.90;;;;;;5081139;28;20044;-74
2022/11/25 10:48:54;;;;;;;0.10;0.10;;;9.30;99.90;;;;;;5080115;28;20056;-75
2022/11/25 10:51:29;;;;;;;1.15;1.02;;;9.30;99.90;;;;;;5079440;28;20041;-73
2022/11/25 10:54:14;;;;;;;0.47;0.35;;;9.50;99.90;;;;;;5045551;28;20044;-74
2022/11/25 10:56:47;;;;;;;0.00;0.00;;;9.40;99.90;;;;;;5082325;28;20056;-74
2022/11/25 10:59:20;;;;;;;0.70;0.22;;;9.30;99.90;;;;;;5079267;28;20570;-74
2022/11/25 11:01:46;;;;;;;0.00;0.00;;;9.40;99.90;;;;;;5078986;28;20080;-73
2022/11/25 11:04:13;;;;;;;0.57;0.47;;;9.40;99.90;;;;;;5078781;28;20043;-74
2022/11/25 11:06:49;;;;;;;0.20;0.20;;;9.70;99.90;;;;;;5078510;28;20045;-73
2022/11/25 11:09:35;;;;;;;0.70;0.43;;;9.90;99.90;;;;;;5079086;28;20063;-75
2022/11/25 11:12:13;;;;;;;0.25;0.20;;;10.00;99.90;;;;;;5079241;28;20154;-75
2022/11/25 11:14:39;;;;;;;1.02;0.13;;;10.00;77.60;;;;;;5079293;28;20070;-75
2022/11/25 11:17:04;;;;;;;0.28;0.20;;;10.10;99.90;;;;;;5079518;28;20044;-74
2022/11/25 11:19:31;;;;;;;0.28;0.25;;;10.10;27.10;;;;;;5078761;28;20087;-73
2022/11/25 11:22:15;;;;;;;0.00;0.00;;;10.00;99.00;;;;;;5077786;28;20059;-73
2022/11/25 11:24:41;;;;;;;0.68;0.68;;;10.00;99.90;;;;;;5076147;28;20020;-74
2022/11/25 11:27:20;;;;;;;0.10;0.08;;;9.90;48.00;;;;;;5075512;28;20048;-75
2022/11/25 11:29:46;;;;;;;0.00;0.00;;;9.90;1.00;;;;;;5073805;28;20041;-73
2022/11/25 11:32:27;;;;;;;0.10;0.10;;;9.80;27.10;;;;;;5075009;28;20056;-74
2022/11/25 11:35:32;;;;;;;0.00;0.00;;;9.70;8.10;;;;;;5074233;28;20082;-75
2022/11/25 11:38:03;;;;;;;0.45;0.45;;;9.70;6.70;;;;;;4972659;28;20057;-75
2022/11/25 11:40:45;;;;;;;1.63;0.75;;;10.70;17.70;;;;;;5057930;28;20048;-73
2022/11/25 11:43:38;;;;;;;0.93;0.80;;;9.60;99.90;;;;;;5074247;28;20385;-74
2022/11/25 11:46:18;;;;;;;0.00;0.00;;;9.80;99.90;;;;;;5073723;28;20467;-75
2022/11/25 11:48:57;;;;;;;0.13;0.13;;;10.00;99.90;;;;;;5074793;28;20087;-75
2022/11/25 11:51:22;;;;;;;0.00;0.00;;;10.10;99.90;;;;;;5073015;28;20049;-74
2022/11/25 11:54:16;;;;;;;0.10;0.10;;;10.20;1.00;;;;;;5073107;28;20059;-73
2022/11/25 11:57:11;;;;;;;0.00;0.00;;;10.30;98.90;;;;;;5072499;28;20049;-74
2022/11/25 11:59:45;;;;;;;0.70;0.52;;;10.60;99.90;;;;;;4967456;28;20066;-73
2022/11/25 12:02:42;;;;;;;0.85;0.40;;;10.70;1.00;;;;;;5075653;28;20052;-73
2022/11/25 12:05:10;;;;;;;0.20;0.20;;;10.80;6.50;;;;;;5075376;28;20067;-74
2022/11/25 12:07:50;;;;;;;0.00;0.00;;;10.70;99.90;;;;;;5075757;28;20457;-74
2022/11/25 12:10:21;;;;;;;1.52;0.93;;;10.60;1.00;;;;;;5076869;28;20051;-75
2022/11/25 12:13:15;;;;;;;0.40;0.40;;;10.60;1.00;;;;;;5075415;28;20690;-74
2022/11/25 12:16:09;;;;;;;0.45;0.32;;;10.60;1.00;;;;;;5076824;28;20084;-75
2022/11/25 12:18:46;;;;;;;0.17;0.17;;;10.40;1.00;;;;;;5075548;28;20409;-74
2022/11/25 12:21:36;;;;;;;1.95;0.43;;;10.40;99.90;;;;;;5074812;28;20045;-74
2022/11/25 12:24:33;;;;;;;0.00;0.00;;;10.60;99.90;;;;;;5074459;28;20044;-73
2022/11/25 12:27:01;;;;;;;0.00;0.00;;;10.80;99.90;;;;;;5073590;28;20053;-74
2022/11/25 12:29:32;;;;;;;0.22;0.22;;;10.90;99.90;;;;;;5073131;28;20055;-73
2022/11/25 12:32:20;;;;;;;0.25;0.25;;;10.90;77.70;;;;;;5074238;28;20041;-73
2022/11/25 12:35:01;;;;;;;0.00;0.00;;;10.90;99.90;;;;;;5072276;28;20044;-73
2022/11/25 12:37:35;;;;;;;1.85;0.98;;;10.80;99.90;;;;;;5073931;28;20048;-74
2022/11/25 12:40:29;;;;;;;0.15;0.15;;;10.90;99.90;;;;;;5073259;28;20055;-74
2022/11/25 12:43:11;;;;;;;0.32;0.32;;;11.00;99.90;;;;;;5066015;28;20048;-74
2022/11/25 12:45:38;;;;;;;0.00;0.00;;;11.10;1.00;;;;;;5071832;28;20544;-73
2022/11/25 12:48:07;;;;;;;0.88;0.63;;;11.10;1.00;;;;;;5072176;28;20100;-73
2022/11/25 12:50:51;;;;;;;0.05;0.05;;;11.10;24.30;;;;;;5073677;28;20044;-75
2022/11/25 12:53:42;;;;;;;0.35;0.32;;;11.20;99.90;;;;;;5072679;28;20048;-73
2022/11/25 12:56:18;;;;;;;0.55;0.50;;;11.20;12.60;;;;;;5071671;28;20072;-73
2022/11/25 12:59:15;;;;;;;0.47;0.47;;;11.10;1.00;;;;;;5073590;28;20124;-73
2022/11/25 13:02:14;;;;;;;0.00;0.00;;;11.00;99.90;;;;;;5072880;28;20091;-74
2022/11/25 13:05:24;;;;;;;0.00;0.00;;;10.90;1.00;;;;;;5072120;28;20409;-73
2022/11/25 13:08:11;;;;;;;0.57;0.35;;;10.90;99.90;;;;;;5047850;28;20064;-75
2022/11/25 13:10:52;;;;;;;0.00;0.00;;;11.00;99.90;;;;;;5073697;28;20057;-73
2022/11/25 13:13:25;;;;;;;0.20;0.20;;;11.00;99.90;;;;;;5071174;28;20736;-73
2022/11/25 13:15:53;;;;;;;0.40;0.40;;;11.10;1.00;;;;;;5071972;28;20410;-73
2022/11/25 13:18:22;;;;;;;0.00;0.00;;;11.10;56.90;;;;;;5072558;28;20059;-74
2022/11/25 13:20:55;;;;;;;0.63;0.50;;;11.20;1.00;;;;;;5071581;28;20052;-72
2022/11/25 13:23:26;;;;;;;0.00;0.00;;;11.30;1.00;;;;;;5072092;28;20048;-74
2022/11/25 13:26:13;;;;;;;0.10;0.10;;;11.40;1.00;;;;;;5072001;28;20048;-73